Time;durP1;ratioP1;P1;durP2;ratioP2;P2;SDS_P1;SDS_P2;PMS_P1;PMS_P2;Temp;Humidity;BMP_temperature;BMP_pressure;BME280_temperature;BME280_humidity;BME280_pressure;Samples;Min_cycle;Max_cycle;Signal;HPM_P1;HPM_P2
2024/03/31 00:00:45;;;;;;;5.45;2.20;;;;;;;15.33;67.85;99289.03;6242944;28;20053;-75
2024/03/31 00:03:46;;;;;;;5.60;2.60;;;;;;;15.43;67.71;99274.06;6244771;28;20049;-74
2024/03/31 00:06:50;;;;;;;8.50;2.50;;;;;;;15.54;67.25;99266.97;6243623;28;20603;-74
2024/03/31 00:09:51;;;;;;;7.97;2.65;;;;;;;15.64;66.64;99270.38;6244663;28;20053;-74
2024/03/31 00:12:52;;;;;;;6.90;2.80;;;;;;;15.68;66.30;99262.06;6252769;28;20402;-75
2024/03/31 00:15:53;;;;;;;7.70;2.70;;;;;;;15.69;65.72;99244.50;6260533;28;20049;-74
2024/03/31 00:18:54;;;;;;;6.20;2.28;;;;;;;15.88;65.15;99243.59;6243801;28;20045;-74
2024/03/31 00:21:55;;;;;;;6.00;2.70;;;;;;;15.93;64.67;99243.97;6243238;28;20053;-74
2024/03/31 00:24:56;;;;;;;3.80;2.03;;;;;;;15.97;63.95;99242.69;6246635;28;20049;-75
2024/03/31 00:27:57;;;;;;;4.32;2.08;;;;;;;16.06;63.36;99239.19;6246017;28;20506;-75
2024/03/31 00:30:59;;;;;;;4.43;1.92;;;;;;;16.10;62.47;99235.28;6242585;28;20100;-74
2024/03/31 00:34:00;;;;;;;9.93;2.30;;;;;;;16.10;62.16;99234.44;6242822;28;20055;-74
2024/03/31 00:37:01;;;;;;;5.28;2.00;;;;;;;16.23;60.97;99234.09;6243307;28;20042;-74
2024/03/31 00:40:03;;;;;;;3.50;1.85;;;;;;;16.49;59.99;99228.88;6244317;28;20069;-74
2024/03/31 00:43:03;;;;;;;10.20;2.67;;;;;;;16.73;59.23;99234.34;6245561;28;20053;-74
2024/03/31 00:46:04;;;;;;;4.63;2.10;;;;;;;16.80;59.17;99236.38;6249184;28;20041;-74
2024/03/31 00:49:07;;;;;;;8.10;2.22;;;;;;;16.78;58.71;99227.78;6249212;28;20052;-75
2024/03/31 00:52:09;;;;;;;3.22;1.80;;;;;;;16.75;58.53;99238.66;6261906;28;20053;-74
2024/03/31 00:55:09;;;;;;;6.20;2.40;;;;;;;16.85;57.84;99242.06;6247744;28;20402;-75
2024/03/31 00:58:10;;;;;;;4.53;2.03;;;;;;;16.87;57.83;99240.91;6264084;28;20045;-75
2024/03/31 01:01:11;;;;;;;5.40;2.22;;;;;;;16.81;57.92;99249.41;6256793;28;20049;-75
2024/03/31 01:04:12;;;;;;;4.55;2.20;;;;;;;16.92;57.83;99251.81;6272694;28;20400;-75
2024/03/31 01:07:13;;;;;;;7.15;2.40;;;;;;;16.84;57.73;99249.13;6273386;28;20098;-75
2024/03/31 01:10:14;;;;;;;8.13;2.40;;;;;;;16.77;58.14;99253.31;6272392;28;20044;-75
2024/03/31 01:13:15;;;;;;;6.85;2.17;;;;;;;16.63;58.32;99248.59;6272228;28;20057;-75
2024/03/31 01:16:21;;;;;;;4.70;2.08;;;;;;;16.49;58.35;99244.69;6273256;28;20053;-74
2024/03/31 01:19:22;;;;;;;11.63;2.30;;;;;;;16.47;58.63;99259.81;6272925;28;20127;-74
2024/03/31 01:22:24;;;;;;;7.68;2.25;;;;;;;16.38;58.84;99265.97;6272286;28;20080;-74
2024/03/31 01:25:25;;;;;;;3.47;2.35;;;;;;;16.43;58.92;99272.47;6273443;28;20049;-74
2024/03/31 01:28:26;;;;;;;4.32;1.90;;;;;;;16.25;59.37;99272.44;6268727;28;20055;-75
2024/03/31 01:31:27;;;;;;;6.05;2.53;;;;;;;16.17;59.80;99269.72;6273445;28;20045;-75
2024/03/31 01:34:28;;;;;;;6.57;2.22;;;;;;;16.16;59.83;99275.13;6248966;28;20389;-74
2024/03/31 01:37:29;;;;;;;9.27;2.10;;;;;;;16.01;60.00;99266.91;6247959;28;20049;-74
2024/03/31 01:40:30;;;;;;;5.20;1.80;;;;;;;16.02;60.10;99285.19;6246408;28;20065;-75
2024/03/31 01:43:31;;;;;;;4.20;1.67;;;;;;;15.97;60.25;99284.78;6245945;28;20439;-74
2024/03/31 01:46:31;;;;;;;3.13;1.35;;;;;;;15.91;60.83;99295.91;6246525;28;20048;-74
2024/03/31 01:49:32;;;;;;;6.80;1.80;;;;;;;15.94;60.71;99293.00;6247867;28;20053;-75
2024/03/31 01:52:33;;;;;;;10.02;2.70;;;;;;;15.91;60.90;99301.16;6247896;28;20064;-74
2024/03/31 01:55:34;;;;;;;4.75;1.92;;;;;;;15.78;61.71;99288.34;6246386;28;20045;-74
2024/03/31 01:58:35;;;;;;;3.95;1.92;;;;;;;15.79;61.79;99287.38;6266258;28;20089;-74
2024/03/31 02:01:35;;;;;;;4.03;1.77;;;;;;;15.80;61.96;99290.84;6247119;28;20112;-74
2024/03/31 02:04:36;;;;;;;7.35;2.05;;;;;;;15.75;62.09;99293.91;6246827;28;20056;-75
2024/03/31 02:07:37;;;;;;;7.15;1.63;;;;;;;15.72;62.25;99296.81;6246547;28;20061;-74
2024/03/31 02:10:38;;;;;;;4.55;2.05;;;;;;;15.75;62.48;99295.69;6245559;28;20107;-74
2024/03/31 02:13:39;;;;;;;5.85;2.08;;;;;;;15.80;62.22;99307.44;6245905;28;20132;-74
2024/03/31 02:16:42;;;;;;;2.90;1.55;;;;;;;15.81;62.19;99309.09;6247172;28;20521;-75
2024/03/31 02:19:44;;;;;;;4.95;1.80;;;;;;;15.86;61.94;99308.69;6246973;28;20072;-75
2024/03/31 02:22:49;;;;;;;3.88;1.70;;;;;;;15.91;61.86;99312.50;6246506;28;20053;-75
2024/03/31 02:25:50;;;;;;;2.75;1.70;;;;;;;15.97;61.39;99312.91;6246946;28;20573;-75
2024/03/31 02:28:51;;;;;;;1.65;1.08;;;;;;;15.89;61.70;99306.56;6246922;28;20107;-74
2024/03/31 02:31:52;;;;;;;4.57;1.83;;;;;;;15.87;62.12;99313.78;6246540;28;20057;-74
2024/03/31 02:34:53;;;;;;;4.10;1.80;;;;;;;15.79;62.11;99310.22;6245451;28;20478;-74
2024/03/31 02:37:56;;;;;;;2.88;1.42;;;;;;;15.84;61.84;99316.72;6245993;28;20081;-74
2024/03/31 02:40:56;;;;;;;2.65;1.60;;;;;;;15.83;62.18;99309.78;6246479;28;20075;-74
2024/03/31 02:43:57;;;;;;;2.42;1.40;;;;;;;15.84;62.07;99315.88;6247162;28;20490;-74
2024/03/31 02:46:58;;;;;;;6.30;1.70;;;;;;;15.82;62.35;99323.09;6246003;28;20106;-74
2024/03/31 02:49:59;;;;;;;3.95;1.75;;;;;;;15.78;62.03;99316.47;6250936;28;20060;-74
2024/03/31 02:53:02;;;;;;;2.83;1.42;;;;;;;15.75;62.68;99314.97;6261847;28;20054;-74
2024/03/31 02:56:05;;;;;;;5.78;1.63;;;;;;;15.80;62.54;99310.06;6245137;28;20042;-75
2024/03/31 02:59:06;;;;;;;7.28;1.80;;;;;;;15.85;62.36;99317.53;6246053;28;20045;-74
2024/03/31 03:02:09;;;;;;;5.40;1.50;;;;;;;15.74;62.78;99310.66;6244610;28;20045;-75
2024/03/31 03:05:13;;;;;;;4.65;1.85;;;;;;;15.70;63.34;99314.50;6244706;28;20068;-75
2024/03/31 03:08:14;;;;;;;3.30;1.70;;;;;;;15.63;63.59;99318.72;6245766;28;20053;-74
2024/03/31 03:11:15;;;;;;;3.97;1.40;;;;;;;15.63;63.57;99321.34;6244776;28;20053;-74
2024/03/31 03:14:16;;;;;;;4.97;1.73;;;;;;;15.65;63.48;99322.84;6244277;28;20049;-75
2024/03/31 03:17:17;;;;;;;3.30;1.70;;;;;;;15.57;63.63;99327.16;6244865;28;20449;-74
2024/03/31 03:20:18;;;;;;;6.30;1.75;;;;;;;15.71;63.16;99324.06;6245536;28;20100;-74
2024/03/31 03:23:19;;;;;;;2.47;1.80;;;;;;;15.63;63.34;99318.72;6245608;28;20046;-74
2024/03/31 03:26:20;;;;;;;8.63;1.63;;;;;;;15.60;63.37;99319.81;6245456;28;20060;-74
2024/03/31 03:29:21;;;;;;;5.75;1.98;;;;;;;15.47;63.37;99332.44;6243688;28;20049;-75
2024/03/31 03:32:21;;;;;;;4.38;1.67;;;;;;;15.48;63.82;99337.56;6244072;28;20052;-74
2024/03/31 03:35:25;;;;;;;3.67;1.33;;;;;;;15.50;63.50;99326.91;6244104;28;20053;-74
2024/03/31 03:38:26;;;;;;;7.28;1.55;;;;;;;15.44;63.68;99330.94;6243935;28;20057;-74
2024/03/31 03:41:27;;;;;;;2.85;1.60;;;;;;;15.40;63.50;99328.72;6245347;28;20432;-74
2024/03/31 03:44:27;;;;;;;2.90;1.50;;;;;;;15.36;63.03;99335.22;6243701;28;20100;-74
2024/03/31 03:47:28;;;;;;;3.33;1.83;;;;;;;15.42;62.71;99334.66;6244964;28;20460;-74
2024/03/31 03:50:29;;;;;;;4.32;1.65;;;;;;;15.30;62.78;99334.00;6243896;28;20054;-74
2024/03/31 03:53:30;;;;;;;4.88;1.65;;;;;;;15.38;61.97;99341.16;6244495;28;20057;-74
2024/03/31 03:56:31;;;;;;;3.10;1.40;;;;;;;15.40;61.51;99341.84;6247654;28;20064;-74
2024/03/31 03:59:32;;;;;;;7.13;1.67;;;;;;;15.51;61.42;99344.34;6246454;28;20045;-75
2024/03/31 04:02:33;;;;;;;4.03;1.63;;;;;;;15.50;60.90;99340.88;6243214;28;20354;-75
2024/03/31 04:05:34;;;;;;;4.05;1.75;;;;;;;15.56;61.16;99350.00;6244688;28;20101;-74
2024/03/31 04:08:39;;;;;;;5.45;2.38;;;;;;;15.53;61.29;99352.91;6244257;28;20045;-74
2024/03/31 04:11:40;;;;;;;2.83;1.40;;;;;;;15.55;61.26;99353.59;6243794;28;20060;-74
2024/03/31 04:14:41;;;;;;;6.40;1.83;;;;;;;15.53;61.21;99352.91;6245931;28;20103;-75
2024/03/31 04:17:44;;;;;;;9.18;1.70;;;;;;;15.55;61.55;99358.03;6243123;28;20046;-75
2024/03/31 04:20:45;;;;;;;7.13;1.77;;;;;;;15.60;61.12;99351.34;6244280;28;20111;-75
2024/03/31 04:23:46;;;;;;;5.82;1.70;;;;;;;15.55;61.36;99353.59;6243542;28;20502;-75
2024/03/31 04:26:47;;;;;;;4.15;1.70;;;;;;;15.52;61.41;99356.50;6243397;28;20037;-74
2024/03/31 04:29:48;;;;;;;4.70;1.33;;;;;;;15.48;61.66;99348.09;6243053;28;20100;-75
2024/03/31 04:32:49;;;;;;;2.95;1.42;;;;;;;15.51;61.80;99365.38;6243363;28;20561;-75
2024/03/31 04:35:50;;;;;;;2.97;1.30;;;;;;;15.56;61.50;99355.25;6258222;28;20057;-74
2024/03/31 04:38:51;;;;;;;6.03;2.20;;;;;;;15.71;61.39;99361.72;6244430;28;20141;-75
2024/03/31 04:41:53;;;;;;;3.67;1.33;;;;;;;15.74;61.76;99359.81;6242756;28;20057;-75
2024/03/31 04:44:56;;;;;;;4.25;1.55;;;;;;;15.81;61.70;99369.59;6242659;28;20445;-74
2024/03/31 04:48:01;;;;;;;3.13;1.42;;;;;;;15.85;61.95;99373.59;6243866;28;20049;-74
2024/03/31 04:51:03;;;;;;;4.10;1.42;;;;;;;15.80;62.00;99367.94;6242907;28;20064;-76
2024/03/31 04:54:03;;;;;;;2.30;1.53;;;;;;;15.85;62.11;99384.09;6247289;28;20065;-75
2024/03/31 04:57:04;;;;;;;4.22;1.40;;;;;;;15.73;62.70;99382.66;6246033;28;20360;-75
2024/03/31 05:00:09;;;;;;;4.50;1.80;;;;;;;15.74;62.82;99381.66;6244592;28;20087;-75
2024/03/31 05:03:11;;;;;;;4.00;1.40;;;;;;;15.79;63.15;99391.75;6245922;28;20057;-75
2024/03/31 05:06:12;;;;;;;4.32;1.90;;;;;;;15.65;63.25;99396.47;6244494;28;20050;-75
2024/03/31 05:09:15;;;;;;;5.80;2.00;;;;;;;15.73;63.10;99381.81;6243890;28;20148;-75
2024/03/31 05:12:16;;;;;;;8.60;1.90;;;;;;;15.69;63.04;99383.88;6244394;28;20113;-75
2024/03/31 05:15:16;;;;;;;3.30;1.80;;;;;;;15.72;62.90;99391.50;6243365;28;20456;-74
2024/03/31 05:18:17;;;;;;;4.95;2.08;;;;;;;15.78;62.95;99393.56;6243516;28;20077;-74
2024/03/31 05:21:18;;;;;;;5.65;2.00;;;;;;;15.70;63.14;99393.41;6246100;28;20048;-74
2024/03/31 05:24:19;;;;;;;5.68;1.73;;;;;;;15.83;62.56;99396.56;6244473;28;20103;-73
2024/03/31 05:27:20;;;;;;;6.15;1.95;;;;;;;15.75;62.58;99396.50;6244006;28;20050;-74
2024/03/31 05:30:23;;;;;;;5.35;1.83;;;;;;;15.81;63.12;99406.41;6246436;28;20056;-75
2024/03/31 05:33:24;;;;;;;7.03;1.80;;;;;;;15.79;62.67;99399.66;6246784;28;20053;-74
2024/03/31 05:36:25;;;;;;;3.17;1.48;;;;;;;15.84;62.49;99411.41;6245413;28;20452;-74
2024/03/31 05:39:28;;;;;;;2.58;1.63;;;;;;;15.82;62.23;99402.00;6246644;28;20041;-75
2024/03/31 05:42:30;;;;;;;4.05;1.55;;;;;;;15.89;62.13;99405.69;6247424;28;20050;-74
2024/03/31 05:45:31;;;;;;;4.00;1.35;;;;;;;16.03;61.53;99401.78;6245419;28;20060;-74
2024/03/31 05:48:34;;;;;;;2.85;1.48;;;;;;;15.93;61.55;99398.38;6247803;28;20049;-74
2024/03/31 05:51:35;;;;;;;2.33;1.50;;;;;;;16.06;61.18;99396.22;6245966;28;20101;-74
2024/03/31 05:54:36;;;;;;;2.53;1.45;;;;;;;16.15;61.11;99407.72;6244700;28;20523;-74
2024/03/31 05:57:37;;;;;;;7.97;1.90;;;;;;;16.27;61.14;99407.38;6245768;28;20041;-74
2024/03/31 06:00:40;;;;;;;6.60;1.88;;;;;;;16.20;60.83;99408.91;6245744;28;20088;-75
2024/03/31 06:03:41;;;;;;;4.43;1.30;;;;;;;16.35;60.71;99406.63;6246445;28;20095;-74
2024/03/31 06:06:42;;;;;;;8.38;1.60;;;;;;;16.31;60.33;99386.84;6246875;28;20046;-74
2024/03/31 06:09:46;;;;;;;9.30;1.85;;;;;;;16.45;59.96;99398.66;6245760;28;20376;-74
2024/03/31 06:12:47;;;;;;;6.03;1.80;;;;;;;16.57;59.41;99402.75;6246491;28;20501;-74
2024/03/31 06:15:48;;;;;;;2.13;1.38;;;;;;;16.66;59.48;99406.34;6246193;28;20406;-74
2024/03/31 06:18:49;;;;;;;4.32;1.83;;;;;;;16.88;59.85;99403.28;6247398;28;20096;-74
2024/03/31 06:21:50;;;;;;;4.90;1.50;;;;;;;16.89;59.19;99397.03;6245838;28;20057;-74
2024/03/31 06:24:51;;;;;;;5.28;1.50;;;;;;;17.05;58.61;99401.63;6247318;28;20050;-74
2024/03/31 06:27:52;;;;;;;7.03;1.60;;;;;;;17.16;58.09;99397.94;6245184;28;20045;-75
2024/03/31 06:30:53;;;;;;;5.82;1.88;;;;;;;17.34;57.61;99403.19;6245201;28;20049;-75
2024/03/31 06:33:55;;;;;;;3.72;1.20;;;;;;;17.31;57.19;99399.03;6244948;28;20551;-75
2024/03/31 06:36:56;;;;;;;3.63;1.40;;;;;;;17.55;56.46;99394.94;6250282;28;20505;-75
2024/03/31 06:39:59;;;;;;;3.22;1.65;;;;;;;17.56;56.50;99399.22;6251437;28;20060;-74
2024/03/31 06:43:01;;;;;;;6.43;1.70;;;;;;;17.63;55.65;99410.81;6243527;28;20056;-75
2024/03/31 06:46:02;;;;;;;4.32;1.65;;;;;;;17.75;55.88;99410.53;6244674;28;20050;-75
2024/03/31 06:49:03;;;;;;;9.38;1.50;;;;;;;17.72;55.61;99401.97;6246507;28;20084;-75
2024/03/31 06:52:04;;;;;;;2.65;1.55;;;;;;;17.77;54.87;99398.03;6246471;28;20045;-74
2024/03/31 06:55:06;;;;;;;3.33;1.88;;;;;;;17.87;54.98;99402.28;6244822;28;20053;-75
2024/03/31 06:58:07;;;;;;;10.77;1.90;;;;;;;17.98;54.90;99408.25;6245931;28;20049;-75
2024/03/31 07:01:10;;;;;;;3.58;1.40;;;;;;;17.87;54.09;99401.41;6246170;28;20544;-75
2024/03/31 07:04:10;;;;;;;5.28;1.40;;;;;;;18.09;54.00;99403.50;6244252;28;20409;-75
2024/03/31 07:07:11;;;;;;;2.85;1.27;;;;;;;18.36;54.32;99406.09;6243096;28;20045;-75
2024/03/31 07:10:13;;;;;;;6.18;1.55;;;;;;;18.49;53.38;99407.31;6243713;28;20524;-75
2024/03/31 07:13:14;;;;;;;2.00;1.30;;;;;;;18.61;52.74;99420.22;6243229;28;20125;-75
2024/03/31 07:16:17;;;;;;;5.45;1.40;;;;;;;18.62;52.64;99417.44;6245267;28;20045;-75
2024/03/31 07:19:18;;;;;;;5.07;1.40;;;;;;;18.77;52.57;99420.25;6243549;28;20480;-75
2024/03/31 07:22:19;;;;;;;3.17;1.42;;;;;;;18.67;52.19;99424.84;6243854;28;20051;-75
2024/03/31 07:25:22;;;;;;;2.58;1.27;;;;;;;18.82;51.85;99425.94;6245834;28;20053;-75
2024/03/31 07:28:25;;;;;;;10.13;1.52;;;;;;;18.91;51.44;99421.50;6245190;28;20504;-75
2024/03/31 07:31:28;;;;;;;4.65;1.42;;;;;;;18.95;51.17;99425.47;6244414;28;20050;-75
2024/03/31 07:34:29;;;;;;;3.50;1.30;;;;;;;19.08;51.09;99430.25;6247887;28;20137;-75
2024/03/31 07:37:30;;;;;;;4.32;1.17;;;;;;;19.23;50.62;99444.50;6249674;28;20043;-75
2024/03/31 07:40:31;;;;;;;2.45;1.35;;;;;;;19.41;50.97;99454.91;6245398;28;20050;-75
2024/03/31 07:43:32;;;;;;;5.63;1.50;;;;;;;19.44;49.70;99454.59;6246039;28;20050;-75
2024/03/31 07:46:33;;;;;;;3.63;1.83;;;;;;;19.40;49.41;99455.09;6249828;28;20041;-75
2024/03/31 07:49:34;;;;;;;4.47;1.60;;;;;;;19.47;49.51;99456.06;6250525;28;20455;-75
2024/03/31 07:52:35;;;;;;;9.48;1.58;;;;;;;19.44;49.97;99462.53;6249775;28;20057;-75
2024/03/31 07:55:36;;;;;;;4.82;1.88;;;;;;;19.33;49.74;99457.53;6242666;28;20144;-75
2024/03/31 07:58:36;;;;;;;4.85;1.73;;;;;;;19.45;50.08;99460.69;6242253;28;20049;-75
2024/03/31 08:01:37;;;;;;;3.00;1.48;;;;;;;19.55;50.44;99458.72;6241291;28;20081;-76
2024/03/31 08:04:40;;;;;;;2.90;1.60;;;;;;;19.56;50.45;99464.81;6235769;28;20045;-76
2024/03/31 08:07:41;;;;;;;4.47;1.40;;;;;;;19.70;49.24;99462.38;6235188;28;20034;-68
2024/03/31 08:10:43;;;;;;;6.65;1.30;;;;;;;19.88;49.22;99450.78;6239177;28;20044;-68
2024/03/31 08:13:44;;;;;;;5.38;1.40;;;;;;;20.03;48.93;99469.44;6246766;28;20049;-69
2024/03/31 08:16:45;;;;;;;6.13;1.60;;;;;;;20.18;48.45;99466.91;6241696;28;20049;-68
2024/03/31 08:19:46;;;;;;;3.55;1.15;;;;;;;20.38;48.63;99465.53;6236591;28;20057;-68
2024/03/31 08:22:49;;;;;;;3.03;1.45;;;;;;;20.38;47.16;99473.47;6238592;28;20046;-68
2024/03/31 08:25:51;;;;;;;1.83;1.17;;;;;;;20.49;47.08;99477.59;6241542;28;20072;-68
2024/03/31 08:28:52;;;;;;;2.80;1.30;;;;;;;20.29;46.72;99467.38;6235511;28;20077;-68
2024/03/31 08:31:53;;;;;;;7.70;1.20;;;;;;;20.75;45.06;99453.47;6239860;28;20076;-68
2024/03/31 08:34:54;;;;;;;9.93;1.35;;;;;;;21.08;44.68;99462.03;6241861;28;20470;-68
2024/03/31 08:37:56;;;;;;;4.70;1.40;;;;;;;21.28;44.49;99454.44;6236428;28;20054;-67
2024/03/31 08:41:08;;;;;;;7.50;1.40;;;;;;;21.41;42.96;99453.84;6236345;28;20383;-68
2024/03/31 08:44:14;;;;;;;3.33;1.27;;;;;;;21.58;43.56;99446.63;6243202;28;20057;-68
2024/03/31 08:47:24;;;;;;;3.47;1.13;;;;;;;21.45;42.31;99449.03;6245126;28;20057;-68
2024/03/31 08:50:30;;;;;;;3.33;1.08;;;;;;;21.75;42.31;99441.97;6228894;28;20053;-68
2024/03/31 08:53:37;;;;;;;4.75;1.45;;;;;;;21.66;42.94;99441.25;6243189;28;20068;-68
2024/03/31 08:56:38;;;;;;;6.20;1.50;;;;;;;21.64;41.53;99445.06;6243428;28;20093;-68
2024/03/31 08:59:39;;;;;;;5.23;1.23;;;;;;;21.84;41.34;99435.56;6244116;28;20045;-67
2024/03/31 09:02:40;;;;;;;3.10;1.00;;;;;;;22.03;41.71;99441.34;6244430;28;20439;-68
2024/03/31 09:05:41;;;;;;;5.33;1.40;;;;;;;22.13;40.21;99445.41;6248219;28;20395;-68
2024/03/31 09:08:42;;;;;;;7.50;1.40;;;;;;;22.17;40.84;99432.56;6250066;28;20158;-68
2024/03/31 09:11:43;;;;;;;3.25;1.20;;;;;;;22.69;39.66;99422.81;6247802;28;20464;-68
2024/03/31 09:14:44;;;;;;;7.23;1.53;;;;;;;23.02;38.78;99425.88;6247967;28;20055;-68
2024/03/31 09:17:45;;;;;;;7.57;1.40;;;;;;;23.49;38.13;99431.59;6252885;28;20286;-68
2024/03/31 09:20:46;;;;;;;9.10;1.20;;;;;;;23.69;36.36;99429.09;6248939;28;20782;-68
2024/03/31 09:23:47;;;;;;;4.60;1.15;;;;;;;23.40;37.00;99422.91;6246402;28;20049;-67
2024/03/31 09:26:49;;;;;;;4.33;1.07;;;;;;;23.01;37.68;99426.00;6267105;28;20414;-68
2024/03/31 09:29:50;;;;;;;2.63;1.10;;;;;;;22.88;37.60;99424.88;6269404;28;20292;-68
2024/03/31 09:32:54;;;;;;;6.07;1.47;;;;;;;22.98;38.66;99416.59;6247809;28;20061;-68
2024/03/31 09:35:56;;;;;;;6.00;1.30;;;;;;;22.97;38.64;99408.78;6247273;28;20934;-69
2024/03/31 09:38:56;;;;;;;3.58;1.20;;;;;;;22.79;39.01;99410.03;6248505;28;20076;-68
2024/03/31 09:41:58;;;;;;;3.30;1.40;;;;;;;22.86;40.94;99402.13;6247902;28;20473;-68
2024/03/31 09:45:00;;;;;;;4.67;1.50;;;;;;;22.76;41.81;99409.59;6249269;28;20061;-68
2024/03/31 09:48:09;;;;;;;4.03;1.67;;;;;;;23.00;40.80;99414.56;6247883;28;20342;-69
2024/03/31 09:51:22;;;;;;;10.57;1.73;;;;;;;23.04;40.96;99407.03;6248282;28;20180;-68
2024/03/31 09:54:31;;;;;;;3.97;1.23;;;;;;;23.00;40.12;99403.91;6251769;28;20483;-68
2024/03/31 09:57:37;;;;;;;7.28;1.90;;;;;;;23.22;39.85;99398.59;6270807;28;20479;-68
2024/03/31 10:00:42;;;;;;;2.42;1.27;;;;;;;23.50;40.09;99406.63;6272223;28;20053;-69
2024/03/31 10:20:31;;;;;;;4.35;1.20;;;;;;;24.16;36.76;99373.44;6228886;27;1345516;-69
2024/03/31 10:23:32;;;;;;;;;;;;;;;24.44;36.60;99376.00;6261977;28;20045;-69
2024/03/31 10:26:33;;;;;;;10.82;1.08;;;;;;;24.81;35.08;99373.88;6273804;28;19925;-68
2024/03/31 10:29:35;;;;;;;8.63;1.70;;;;;;;24.67;35.45;99373.03;6270698;28;20408;-77
2024/03/31 10:32:37;;;;;;;2.65;1.10;;;;;;;24.63;34.24;99364.59;6261983;28;20045;-68
2024/03/31 10:35:41;;;;;;;5.18;1.42;;;;;;;24.79;35.14;99347.41;6271668;28;20131;-69
2024/03/31 10:38:43;;;;;;;7.20;1.52;;;;;;;25.08;34.79;99354.19;6256535;28;20498;-66
2024/03/31 10:41:44;;;;;;;14.73;1.85;;;;;;;25.03;33.87;99353.16;6258452;28;20056;-66
2024/03/31 10:44:46;;;;;;;8.88;1.42;;;;;;;25.27;34.88;99359.78;6270212;28;20059;-68
2024/03/31 10:47:50;;;;;;;7.93;1.50;;;;;;;25.27;32.38;99347.25;6256989;28;20077;-68
2024/03/31 10:50:51;;;;;;;5.95;1.48;;;;;;;25.36;31.13;99345.16;6256474;28;20056;-68
2024/03/31 10:53:52;;;;;;;10.40;1.77;;;;;;;25.15;31.14;99356.88;6274023;28;20153;-68
2024/03/31 10:57:05;;;;;;;14.75;1.55;;;;;;;25.15;30.44;99367.53;6257022;28;20057;-68
2024/03/31 11:00:09;;;;;;;3.67;1.48;;;;;;;25.27;31.40;99362.44;6274040;28;20159;-68
2024/03/31 11:03:10;;;;;;;6.63;1.73;;;;;;;25.59;31.19;99358.06;6257021;28;20052;-68
2024/03/31 11:06:16;;;;;;;3.33;1.30;;;;;;;25.74;30.03;99353.34;6256619;28;20139;-68
2024/03/31 11:09:17;;;;;;;5.22;1.50;;;;;;;25.62;31.09;99336.31;6267586;28;20140;-68
2024/03/31 11:12:18;;;;;;;2.88;1.23;;;;;;;25.63;31.42;99334.44;6240826;28;20496;-68
2024/03/31 11:15:19;;;;;;;8.10;1.52;;;;;;;25.67;29.29;99316.97;6248867;28;20084;-68
2024/03/31 11:18:21;;;;;;;6.53;1.48;;;;;;;25.93;29.51;99316.91;6261710;28;20404;-68
2024/03/31 11:21:32;;;;;;;4.50;1.40;;;;;;;25.94;28.65;99317.72;6256468;28;20056;-68
2024/03/31 11:24:39;;;;;;;3.88;1.08;;;;;;;26.23;30.90;99307.53;6248640;28;20053;-68
2024/03/31 11:27:40;;;;;;;18.10;1.83;;;;;;;26.00;29.40;99308.88;6257494;28;20132;-68
2024/03/31 11:30:43;;;;;;;11.05;1.48;;;;;;;25.92;29.26;99306.44;6259472;28;20085;-68
2024/03/31 11:33:47;;;;;;;10.50;1.58;;;;;;;26.20;29.21;99294.59;6247797;28;20064;-69
2024/03/31 11:36:50;;;;;;;12.07;1.52;;;;;;;26.26;27.99;99291.06;6244259;28;20136;-68
2024/03/31 11:39:58;;;;;;;9.73;2.20;;;;;;;26.29;29.62;99283.41;6245525;28;20144;-69
2024/03/31 11:43:01;;;;;;;9.02;1.67;;;;;;;26.27;29.04;99284.69;6246234;28;20473;-78
2024/03/31 11:46:03;;;;;;;5.60;2.17;;;;;;;26.11;28.73;99278.00;6245512;28;20086;-77
2024/03/31 11:49:04;;;;;;;10.43;1.80;;;;;;;25.81;28.98;99283.84;6241532;28;20507;-78
2024/03/31 11:52:05;;;;;;;8.23;1.45;;;;;;;26.24;29.89;99277.09;6269658;28;20053;-78
2024/03/31 11:55:06;;;;;;;5.78;1.38;;;;;;;26.19;28.03;99264.38;6270413;28;20063;-78
2024/03/31 11:58:08;;;;;;;9.02;1.40;;;;;;;26.30;27.99;99265.56;6251621;28;20049;-77
2024/03/31 12:01:09;;;;;;;7.95;1.27;;;;;;;26.26;29.79;99272.34;6243508;28;20407;-78
2024/03/31 12:04:19;;;;;;;20.42;2.65;;;;;;;26.06;28.69;99270.59;6233401;28;20046;-77
2024/03/31 12:07:23;;;;;;;7.95;1.38;;;;;;;26.31;29.65;99269.84;6229075;28;20563;-77
2024/03/31 12:10:25;;;;;;;12.48;1.75;;;;;;;26.43;29.46;99265.44;6246059;28;20088;-78
2024/03/31 12:13:29;;;;;;;9.63;1.33;;;;;;;26.38;29.09;99267.13;6268457;28;20472;-77
2024/03/31 12:16:31;;;;;;;14.52;1.83;;;;;;;26.39;28.92;99252.72;6231303;28;20045;-77
2024/03/31 12:19:32;;;;;;;;;;;;;;;26.40;27.60;99249.84;6235115;28;20057;-78
2024/03/31 12:22:33;;;;;;;20.35;2.53;;;;;;;26.46;28.18;99243.63;6201687;28;20410;-78
2024/03/31 12:25:36;;;;;;;17.08;1.60;;;;;;;26.82;26.70;99250.16;6190650;28;20058;-77
2024/03/31 12:28:37;;;;;;;19.13;1.50;;;;;;;26.08;26.08;99262.38;6182364;28;20141;-77
2024/03/31 12:31:39;;;;;;;10.70;1.85;;;;;;;26.05;26.98;99250.25;6187827;28;20061;-77
2024/03/31 12:34:42;;;;;;;;;;;;;;;25.82;26.79;99244.56;6197218;28;20482;-77
2024/03/31 12:37:43;;;;;;;9.65;2.15;;;;;;;25.72;27.62;99221.00;6213968;28;19921;-77
2024/03/31 12:40:44;;;;;;;12.55;2.50;;;;;;;25.68;27.34;99222.47;6197928;28;20394;-77
2024/03/31 12:43:45;;;;;;;9.02;1.70;;;;;;;25.65;27.61;99212.19;6198119;28;20065;-77
2024/03/31 12:46:46;;;;;;;13.20;1.95;;;;;;;25.86;28.70;99206.56;6217762;28;20644;-77
2024/03/31 12:49:50;;;;;;;9.13;1.58;;;;;;;25.47;27.89;99203.03;6202949;28;20082;-77
2024/03/31 12:53:03;;;;;;;8.63;1.52;;;;;;;25.54;27.12;99208.34;6198941;28;20049;-77
2024/03/31 12:56:05;;;;;;;11.07;2.03;;;;;;;25.53;27.09;99201.34;6200155;28;20506;-69
2024/03/31 12:59:09;;;;;;;20.52;2.20;;;;;;;25.37;26.83;99217.81;6193733;28;20108;-69
2024/03/31 13:02:11;;;;;;;15.68;2.13;;;;;;;25.33;27.25;99218.25;6209957;28;20052;-69
2024/03/31 13:05:14;;;;;;;19.08;1.88;;;;;;;25.23;28.05;99217.06;6202980;28;20493;-77
2024/03/31 13:08:17;;;;;;;10.48;2.28;;;;;;;25.19;27.78;99213.16;6214687;28;20456;-77
2024/03/31 13:11:19;;;;;;;27.75;2.38;;;;;;;25.10;28.37;99204.50;6215139;28;20066;-77
2024/03/31 13:14:21;;;;;;;19.90;2.30;;;;;;;25.35;27.79;99196.69;6216532;28;20520;-77
2024/03/31 13:17:23;;;;;;;14.48;1.60;;;;;;;25.36;28.38;99205.53;6216717;28;20712;-78
2024/03/31 13:20:24;;;;;;;;;;;;;;;25.52;27.73;99205.06;6261413;28;20432;-76
2024/03/31 13:23:26;;;;;;;10.83;1.90;;;;;;;25.63;28.22;99198.22;6268139;28;19921;-77
2024/03/31 13:26:27;;;;;;;13.27;1.85;;;;;;;25.53;28.00;99206.69;6250786;28;20152;-68
2024/03/31 13:29:28;;;;;;;13.60;1.67;;;;;;;25.46;28.27;99197.88;6268344;28;20041;-68
2024/03/31 13:32:31;;;;;;;17.05;2.55;;;;;;;25.43;28.50;99199.13;6268293;28;20465;-68
2024/03/31 13:35:32;;;;;;;16.08;2.47;;;;;;;25.51;29.88;99192.72;6250814;28;20066;-68
2024/03/31 13:38:33;;;;;;;17.90;1.83;;;;;;;25.57;28.90;99183.03;6243750;28;20049;-68
2024/03/31 13:41:34;;;;;;;12.68;2.53;;;;;;;25.63;27.66;99168.84;6226283;28;20106;-68
2024/03/31 13:44:38;;;;;;;14.60;1.90;;;;;;;25.80;26.99;99175.34;6243378;28;20061;-68
2024/03/31 13:47:40;;;;;;;12.07;2.30;;;;;;;26.05;27.06;99161.25;6243531;28;20052;-68
2024/03/31 13:50:41;;;;;;;20.27;2.30;;;;;;;26.17;26.96;99162.19;6225523;28;20450;-69
2024/03/31 13:53:41;;;;;;;25.70;2.03;;;;;;;25.88;26.43;99166.22;6243627;28;20083;-69
2024/03/31 13:56:44;;;;;;;7.50;1.90;;;;;;;25.72;25.97;99170.25;6243577;28;20057;-68
2024/03/31 13:59:47;;;;;;;22.15;2.60;;;;;;;25.83;27.59;99158.88;6243407;28;20042;-67
2024/03/31 14:02:48;;;;;;;19.13;2.08;;;;;;;25.82;26.53;99153.72;6225034;28;20053;-67
2024/03/31 14:05:49;;;;;;;28.98;2.47;;;;;;;25.76;27.48;99135.88;6224928;28;20053;-67
2024/03/31 14:08:50;;;;;;;12.52;2.03;;;;;;;25.67;28.07;99135.31;6225665;28;20369;-67
2024/03/31 14:11:51;;;;;;;14.50;2.20;;;;;;;25.71;28.41;99121.31;6225431;28;20050;-68
2024/03/31 14:14:52;;;;;;;14.03;2.20;;;;;;;25.52;27.19;99130.28;6243430;28;20400;-67
2024/03/31 14:17:53;;;;;;;21.83;3.53;;;;;;;25.65;27.71;99122.19;6236692;28;20057;-67
2024/03/31 14:20:54;;;;;;;18.55;2.97;;;;;;;25.58;27.28;99121.41;6250096;28;20057;-68
2024/03/31 14:23:54;;;;;;;16.97;2.17;;;;;;;25.62;27.43;99119.13;6249766;28;20057;-68
2024/03/31 14:26:57;;;;;;;23.57;2.60;;;;;;;25.54;27.32;99113.00;6249990;28;20049;-67
2024/03/31 14:29:58;;;;;;;17.15;2.40;;;;;;;25.41;27.16;99107.75;6267353;28;20411;-67